Escanaba, MI (49829)

10:48 AM EDT on September 05, 2015 (GMT -0400)
Hurley Marine Lake Side Weather | | Change Station
CLOSE
Current Station
Personal Weather Station
Location: Escanaba, MI
Elevation: 607 ft
Nearby Weather Stations

Elev 607 ft 45.73 °N, 87.06 °W | Updated 2 seconds ago

Overcast
Overcast
71.1 °F
Feels Like 71.1 °F
N
0.0
Wind Variable Wind from SSW
Gusts 2.0 mph

Today
High -- | Low -- °F
--% Chance of Precip.
Yesterday
High -- | Low -- °F
Precip. -- in
7:14 AM 8:19 PM
Waning Gibbous, 48% visible
Pressure 30.07 in
Visibility 9.0 miles
Clouds Overcast 800 ft
Dew Point 68 °F
Humidity 89%
Rainfall 0.00 in
Snow Depth Not available.
UV 1 out of 12
Pollen 8.60 out of 12
Air Quality Not available.
Flu Activity Not available.
METAR KESC 051435Z AUTO 24003KT 9SM OVC008 21/19 A3007 RMK AO1
Pressure 30.07 in
Visibility 9.0 miles
Clouds Overcast 800 ft
Dew Point 68 °F
Humidity 89%
Rainfall 0.00 in
Snow Depth Not available.
UV 1 out of 12
Pollen 8.60 out of 12
Air Quality Not available.
Flu Activity Not available.
METAR KESC 051435Z AUTO 24003KT 9SM OVC008 21/19 A3007 RMK AO1

10-Day Weather Forecast

×

Almanac

Astronomy

Sep. 05, 2015 Rise Set
Actual Time
Civil Twilight
Nautical Twilight
Astronomical Twilight
Moon
Length of Visible Light
Length of Day
Tomorrow will be .
, % of the Moon is Illuminated

Today's Extremes

State Highs State Lows

Community

WunderPhotos

Upload Photos

1,852,481 photos uploaded!

WunderBlogs® & News

Nearby

Air Quality

  Air Quality AQ Index Pollutant
Not available.

Snow Depth

Station Depth Elevation

Earthquake Activity

City Distance Mag. Time & Date
Minimum magnitude displayed is 2.5.

Coastal Water Temperatures

Place Temperature

Stations

Nearby Weather Stations

Station Location Temp. Windchill Dew Point Humidity Wind Precip. Elev Updated Type